createdAt,value
2022-11-04T00:01:45.421Z,9.90
2022-11-04T00:04:14.070Z,9.90
2022-11-04T00:06:41.546Z,9.80
2022-11-04T00:09:11.917Z,9.90
2022-11-04T00:11:38.982Z,9.80
2022-11-04T00:14:08.161Z,9.80
2022-11-04T00:16:35.507Z,9.80
2022-11-04T00:19:03.059Z,9.80
2022-11-04T00:21:29.921Z,9.80
2022-11-04T00:23:56.739Z,9.80
2022-11-04T00:26:23.563Z,9.90
2022-11-04T00:28:50.406Z,9.80
2022-11-04T00:31:17.353Z,9.90
2022-11-04T00:33:44.305Z,9.80
2022-11-04T00:36:11.094Z,9.80
2022-11-04T00:38:37.970Z,9.80
2022-11-04T00:41:04.946Z,9.90
2022-11-04T00:43:31.794Z,9.80
2022-11-04T00:45:58.623Z,9.80
2022-11-04T00:48:25.428Z,9.70
2022-11-04T00:50:52.276Z,9.70
2022-11-04T00:53:19.078Z,9.80
2022-11-04T00:55:45.903Z,9.70
2022-11-04T00:58:12.718Z,9.70
2022-11-04T01:00:39.533Z,9.70
2022-11-04T01:03:06.834Z,9.70
2022-11-04T01:05:33.801Z,9.80
2022-11-04T01:08:00.812Z,9.80
2022-11-04T01:10:27.626Z,9.70
2022-11-04T01:12:54.402Z,9.70
2022-11-04T01:15:21.233Z,9.80
2022-11-04T01:17:47.996Z,9.70
2022-11-04T01:20:14.803Z,9.70
2022-11-04T01:22:41.615Z,9.70
2022-11-04T01:25:09.687Z,9.70
2022-11-04T01:27:36.582Z,9.70
2022-11-04T01:30:03.804Z,9.70
2022-11-04T01:32:30.745Z,9.70
2022-11-04T01:34:57.756Z,9.70
2022-11-04T01:37:24.603Z,9.80
2022-11-04T01:39:51.443Z,9.80
2022-11-04T01:42:22.380Z,9.70
2022-11-04T01:44:58.071Z,9.70
2022-11-04T01:47:40.601Z,9.70
2022-11-04T01:50:14.537Z,9.70
2022-11-04T01:52:47.298Z,9.70
2022-11-04T01:55:19.109Z,9.70
2022-11-04T01:57:49.627Z,9.70
2022-11-04T02:00:17.742Z,9.80
2022-11-04T02:03:00.751Z,9.70
2022-11-04T02:05:29.699Z,9.60
2022-11-04T02:07:59.957Z,9.70
2022-11-04T02:10:29.339Z,9.70
2022-11-04T02:12:58.009Z,9.70
2022-11-04T02:15:54.282Z,9.70
2022-11-04T02:18:42.580Z,9.70
2022-11-04T02:22:03.149Z,9.70
2022-11-04T02:25:00.678Z,9.70
2022-11-04T02:27:42.468Z,9.70
2022-11-04T02:30:19.890Z,9.60
2022-11-04T02:32:58.904Z,9.70
2022-11-04T02:35:28.624Z,9.70
2022-11-04T02:38:20.485Z,9.70
2022-11-04T02:41:24.878Z,9.70
2022-11-04T02:44:15.803Z,9.70
2022-11-04T02:47:00.135Z,9.60
2022-11-04T02:49:36.079Z,9.60
2022-11-04T02:52:09.667Z,9.60
2022-11-04T02:54:48.665Z,9.70
2022-11-04T02:57:29.519Z,9.60
2022-11-04T03:00:04.377Z,9.70
2022-11-04T03:02:41.118Z,9.60
2022-11-04T03:05:12.829Z,9.60
2022-11-04T03:07:42.260Z,9.70
2022-11-04T03:10:34.874Z,9.60
2022-11-04T03:13:16.945Z,9.60
2022-11-04T03:15:50.182Z,9.60
2022-11-04T03:18:41.687Z,9.60
2022-11-04T03:21:11.688Z,9.50
2022-11-04T03:23:38.897Z,9.50
2022-11-04T03:26:39.657Z,9.50
2022-11-04T03:29:25.831Z,9.40
2022-11-04T03:32:07.568Z,9.50
2022-11-04T03:34:34.601Z,9.40
2022-11-04T03:37:01.741Z,9.40
2022-11-04T03:39:28.893Z,9.40
2022-11-04T03:41:58.257Z,9.40
2022-11-04T03:44:25.798Z,9.40
2022-11-04T03:46:53.506Z,9.30
2022-11-04T03:49:22.220Z,9.30
2022-11-04T03:51:50.155Z,9.30
2022-11-04T03:54:17.597Z,9.30
2022-11-04T03:57:07.737Z,9.30
2022-11-04T03:59:53.206Z,9.30
2022-11-04T04:02:27.353Z,9.30
2022-11-04T04:05:19.151Z,9.30
2022-11-04T04:07:53.960Z,9.20
2022-11-04T04:10:26.833Z,9.30
2022-11-04T04:12:59.156Z,9.30
2022-11-04T04:15:33.124Z,9.40
2022-11-04T04:18:04.176Z,9.30
2022-11-04T04:20:35.466Z,9.30
2022-11-04T04:23:08.063Z,9.30
2022-11-04T04:25:35.046Z,9.40
2022-11-04T04:28:03.396Z,9.30
2022-11-04T04:30:31.099Z,9.30
2022-11-04T04:33:15.574Z,9.30
2022-11-04T04:35:51.767Z,9.30
2022-11-04T04:38:27.854Z,9.30
2022-11-04T04:41:01.567Z,9.30
2022-11-04T04:43:28.457Z,9.20
2022-11-04T04:45:56.551Z,9.20
2022-11-04T04:48:23.484Z,9.10
2022-11-04T04:50:53.883Z,9.10
2022-11-04T04:53:20.690Z,9.10
2022-11-04T04:55:47.496Z,9.10
2022-11-04T04:58:14.403Z,9.00
2022-11-04T05:00:41.359Z,9.10
2022-11-04T05:03:08.499Z,9.10
2022-11-04T05:05:35.495Z,9.10
2022-11-04T05:08:07.626Z,9.10
2022-11-04T05:10:35.086Z,9.10
2022-11-04T05:13:02.319Z,9.20
2022-11-04T05:15:29.898Z,9.10
2022-11-04T05:17:59.512Z,9.10
2022-11-04T05:20:26.643Z,9.00
2022-11-04T05:22:54.828Z,9.00
2022-11-04T05:25:21.673Z,8.90
2022-11-04T05:27:48.475Z,8.90
2022-11-04T05:30:15.737Z,8.90
2022-11-04T05:32:42.570Z,8.90
2022-11-04T05:35:09.473Z,8.90
2022-11-04T05:37:36.370Z,8.90
2022-11-04T05:40:03.444Z,8.90
2022-11-04T05:42:31.640Z,8.90
2022-11-04T05:44:58.811Z,8.90
2022-11-04T05:47:25.584Z,8.90
2022-11-04T05:49:52.371Z,8.80
2022-11-04T05:52:19.199Z,8.90
2022-11-04T05:54:45.968Z,8.80
2022-11-04T05:57:12.835Z,8.90
2022-11-04T05:59:39.674Z,8.80
2022-11-04T06:02:06.650Z,8.80
2022-11-04T06:04:33.975Z,8.80
2022-11-04T06:07:00.766Z,8.90
2022-11-04T06:09:27.535Z,8.70
2022-11-04T06:11:54.418Z,8.70
2022-11-04T06:14:21.317Z,8.70
2022-11-04T06:16:48.112Z,8.70
2022-11-04T06:19:16.216Z,8.70
2022-11-04T06:21:43.253Z,8.70
2022-11-04T06:24:10.032Z,8.70
2022-11-04T06:26:36.807Z,8.70
2022-11-04T06:29:03.596Z,8.60
2022-11-04T06:31:30.431Z,8.70
2022-11-04T06:33:57.379Z,8.70
2022-11-04T06:36:24.211Z,8.70
2022-11-04T06:38:51.019Z,8.70
2022-11-04T06:41:18.084Z,8.70
2022-11-04T06:43:44.946Z,8.70
2022-11-04T06:46:36.088Z,8.70
2022-11-04T06:49:04.241Z,8.70
2022-11-04T06:51:31.491Z,8.70
2022-11-04T06:53:58.346Z,8.60
2022-11-04T06:56:25.662Z,8.60
2022-11-04T06:58:53.860Z,8.60
2022-11-04T07:01:22.682Z,8.50
2022-11-04T07:03:51.268Z,8.70
2022-11-04T07:06:18.898Z,8.80
2022-11-04T07:08:46.714Z,8.70
2022-11-04T07:11:13.986Z,8.70
2022-11-04T07:13:40.769Z,8.70
2022-11-04T07:16:08.565Z,8.70
2022-11-04T07:18:36.284Z,8.70
2022-11-04T07:21:09.619Z,8.70
2022-11-04T07:23:37.273Z,8.60
2022-11-04T07:26:06.745Z,8.70
2022-11-04T07:28:34.523Z,8.70
2022-11-04T07:31:03.343Z,8.80
2022-11-04T07:33:30.201Z,8.80
2022-11-04T07:35:58.169Z,8.60
2022-11-04T07:38:25.707Z,8.70
2022-11-04T07:40:52.581Z,8.70
2022-11-04T07:43:19.403Z,8.70
2022-11-04T07:45:46.893Z,8.70
2022-11-04T07:48:13.803Z,8.80
2022-11-04T07:50:40.860Z,8.70
2022-11-04T07:53:08.231Z,8.70
2022-11-04T07:55:42.877Z,8.70
2022-11-04T07:58:10.862Z,8.80
2022-11-04T08:00:37.676Z,8.80
2022-11-04T08:03:04.695Z,8.90
2022-11-04T08:05:31.585Z,8.80
2022-11-04T08:07:58.436Z,8.80
2022-11-04T08:10:25.410Z,8.80
2022-11-04T08:12:52.499Z,8.80
2022-11-04T08:15:19.468Z,8.70
2022-11-04T08:17:46.346Z,8.80
2022-11-04T08:20:13.223Z,8.70
2022-11-04T08:22:39.996Z,8.80
2022-11-04T08:25:07.029Z,8.80
2022-11-04T08:27:35.076Z,8.80
2022-11-04T08:30:02.079Z,8.80
2022-11-04T08:32:28.908Z,8.90
2022-11-04T08:34:55.781Z,8.80
2022-11-04T08:37:22.747Z,8.80
2022-11-04T08:39:49.627Z,8.70
2022-11-04T08:42:16.490Z,8.70
2022-11-04T08:44:43.290Z,8.80
2022-11-04T08:47:10.160Z,8.70
2022-11-04T08:49:40.482Z,8.80
2022-11-04T08:52:07.325Z,8.80
2022-11-04T08:54:34.169Z,8.80
2022-11-04T08:57:01.138Z,8.80
2022-11-04T08:59:28.208Z,8.70
2022-11-04T09:01:55.157Z,8.80
2022-11-04T09:04:22.094Z,8.80
2022-11-04T09:06:48.996Z,8.80
2022-11-04T09:09:16.866Z,8.80
2022-11-04T09:11:45.031Z,8.90
2022-11-04T09:14:12.781Z,8.90
2022-11-04T09:16:41.563Z,8.90
2022-11-04T09:19:08.370Z,8.80
2022-11-04T09:21:35.173Z,8.90
2022-11-04T09:24:03.087Z,8.80
2022-11-04T09:26:30.133Z,8.90
2022-11-04T09:28:58.386Z,8.90
2022-11-04T09:31:26.985Z,8.90
2022-11-04T09:33:55.378Z,8.90
2022-11-04T09:36:22.834Z,8.80
2022-11-04T09:38:49.798Z,8.80
2022-11-04T09:41:54.967Z,8.80
2022-11-04T09:47:46.107Z,8.90
2022-11-04T09:50:26.047Z,8.80
2022-11-04T09:53:04.294Z,8.80
2022-11-04T09:55:54.680Z,9.00
2022-11-04T09:58:21.682Z,8.90
2022-11-04T10:01:01.761Z,9.00
2022-11-04T10:03:46.733Z,8.90
2022-11-04T10:06:41.487Z,8.90
2022-11-04T10:09:18.527Z,8.90
2022-11-04T10:11:54.446Z,8.90
2022-11-04T10:14:46.005Z,8.90
2022-11-04T10:17:38.087Z,8.90
2022-11-04T10:20:43.815Z,8.90
2022-11-04T10:23:33.421Z,8.80
2022-11-04T10:26:14.485Z,8.90
2022-11-04T10:28:46.365Z,8.90
2022-11-04T10:31:18.141Z,8.90
2022-11-04T10:33:50.539Z,8.90
2022-11-04T10:36:18.139Z,8.90
2022-11-04T10:38:55.136Z,8.90
2022-11-04T10:41:27.989Z,8.80
2022-11-04T10:44:01.261Z,8.80
2022-11-04T10:46:53.625Z,8.90
2022-11-04T10:49:54.733Z,8.90
2022-11-04T10:52:28.906Z,8.80
2022-11-04T10:54:55.676Z,8.80
2022-11-04T10:57:25.306Z,8.80
2022-11-04T10:59:58.348Z,8.80
2022-11-04T11:02:37.412Z,8.80
2022-11-04T11:05:17.542Z,8.80
2022-11-04T11:07:47.738Z,8.80
2022-11-04T11:10:19.716Z,8.80
2022-11-04T11:13:01.380Z,8.90
2022-11-04T11:15:38.538Z,8.90
2022-11-04T11:18:08.319Z,8.80
2022-11-04T11:20:35.576Z,8.80
2022-11-04T11:23:05.025Z,8.80
2022-11-04T11:25:34.011Z,8.80
2022-11-04T11:28:07.052Z,8.80
2022-11-04T11:30:53.625Z,8.80
2022-11-04T11:33:48.220Z,8.80
2022-11-04T11:36:28.506Z,8.80
2022-11-04T11:39:05.599Z,8.90
2022-11-04T11:41:39.576Z,9.00
2022-11-04T11:44:49.343Z,8.90
2022-11-04T11:47:34.516Z,8.90
2022-11-04T11:50:13.357Z,8.90
2022-11-04T11:52:47.691Z,9.00
2022-11-04T11:55:27.740Z,9.00
2022-11-04T12:01:24.133Z,9.00
2022-11-04T12:10:00.588Z,9.00
2022-11-04T12:12:56.830Z,9.10
2022-11-04T12:15:49.060Z,9.10
2022-11-04T12:18:18.858Z,9.20
2022-11-04T12:21:14.622Z,9.10
2022-11-04T12:23:56.045Z,9.10
2022-11-04T12:26:46.947Z,9.20
2022-11-04T12:29:16.528Z,9.20
2022-11-04T12:31:59.404Z,9.20
2022-11-04T12:34:48.076Z,9.30
2022-11-04T12:37:30.397Z,9.30
2022-11-04T12:40:06.164Z,9.40
2022-11-04T12:42:38.925Z,9.40
2022-11-04T12:45:22.315Z,9.40
2022-11-04T12:47:49.514Z,9.40
2022-11-04T12:50:52.803Z,9.50
2022-11-04T12:53:31.266Z,9.50
2022-11-04T12:56:09.260Z,9.40
2022-11-04T12:58:41.852Z,9.40
2022-11-04T13:01:43.242Z,9.40
2022-11-04T13:04:13.057Z,9.40
2022-11-04T13:07:12.462Z,9.40
2022-11-04T13:09:57.569Z,9.50
2022-11-04T13:12:30.376Z,9.40
2022-11-04T13:15:02.645Z,9.40
2022-11-04T13:17:38.186Z,9.30
2022-11-04T13:20:11.487Z,9.30
2022-11-04T13:22:39.255Z,9.30
2022-11-04T13:25:08.987Z,9.40
2022-11-04T13:27:39.659Z,9.40
2022-11-04T13:30:10.225Z,9.40
2022-11-04T13:32:52.899Z,9.50
2022-11-04T13:35:29.505Z,9.40
2022-11-04T13:38:11.254Z,9.40
2022-11-04T13:40:59.475Z,9.30
2022-11-04T13:43:37.430Z,9.30
2022-11-04T13:46:18.077Z,9.50
2022-11-04T13:48:56.487Z,9.50
2022-11-04T13:51:23.637Z,9.50
2022-11-04T13:53:52.029Z,9.50
2022-11-04T13:56:35.057Z,9.50
2022-11-04T13:59:16.812Z,9.50
2022-11-04T14:01:43.876Z,9.40
2022-11-04T14:04:13.855Z,9.50
2022-11-04T14:07:01.853Z,9.50
2022-11-04T14:09:42.478Z,9.40
2022-11-04T14:12:12.115Z,9.50
2022-11-04T14:14:43.413Z,9.50
2022-11-04T14:17:35.098Z,9.50
2022-11-04T14:20:23.564Z,9.40
2022-11-04T14:22:53.067Z,9.40
2022-11-04T14:25:41.777Z,9.50
2022-11-04T14:28:14.345Z,9.40
2022-11-04T14:30:54.648Z,9.40
2022-11-04T14:33:38.611Z,9.40
2022-11-04T14:36:22.714Z,9.40
2022-11-04T14:39:11.637Z,9.40
2022-11-04T14:42:00.012Z,9.40
2022-11-04T14:44:37.386Z,9.40
2022-11-04T14:47:24.974Z,9.30
2022-11-04T14:49:59.177Z,9.30
2022-11-04T14:52:47.296Z,9.30
2022-11-04T14:55:18.184Z,9.30
2022-11-04T14:57:51.391Z,9.30
2022-11-04T15:00:19.818Z,9.40
2022-11-04T15:02:47.750Z,9.30
2022-11-04T15:05:26.666Z,9.30
2022-11-04T15:07:53.430Z,9.30
2022-11-04T15:10:22.596Z,9.40
2022-11-04T15:12:49.370Z,9.30
2022-11-04T15:15:35.525Z,9.40
2022-11-04T15:18:09.935Z,9.40
2022-11-04T15:20:44.734Z,9.30
2022-11-04T15:23:15.464Z,9.30
2022-11-04T15:25:47.441Z,9.20
2022-11-04T15:28:19.678Z,9.20
2022-11-04T15:31:12.690Z,9.20
2022-11-04T15:33:45.531Z,9.30
2022-11-04T15:36:22.431Z,9.20
2022-11-04T15:38:58.293Z,9.30
2022-11-04T15:41:28.903Z,9.30
2022-11-04T15:43:55.834Z,9.30
2022-11-04T15:46:24.353Z,9.30
2022-11-04T15:49:19.422Z,9.30
2022-11-04T15:51:46.618Z,9.30
2022-11-04T15:54:40.038Z,9.30
2022-11-04T15:57:25.762Z,9.30
2022-11-04T16:00:20.893Z,9.30
2022-11-04T16:02:56.202Z,9.40
2022-11-04T16:05:30.001Z,9.30
2022-11-04T16:08:19.005Z,9.40
2022-11-04T16:10:46.534Z,9.30
2022-11-04T16:13:17.006Z,9.40
2022-11-04T16:15:58.877Z,9.40
2022-11-04T16:18:37.100Z,9.30
2022-11-04T16:21:12.893Z,9.30
2022-11-04T16:23:50.828Z,9.40
2022-11-04T16:26:25.383Z,9.50
2022-11-04T16:28:57.398Z,9.40
2022-11-04T16:31:34.492Z,9.40
2022-11-04T16:34:01.986Z,9.50
2022-11-04T16:36:34.255Z,9.50
2022-11-04T16:39:04.296Z,9.40
2022-11-04T16:41:36.112Z,9.40
2022-11-04T16:44:04.421Z,9.40
2022-11-04T16:46:33.670Z,9.40
2022-11-04T16:49:00.527Z,9.40
2022-11-04T16:51:27.674Z,9.50
2022-11-04T16:53:55.166Z,9.50
2022-11-04T16:56:26.659Z,9.50
2022-11-04T16:58:53.939Z,9.50
2022-11-04T17:01:21.147Z,9.50
2022-11-04T17:03:49.141Z,9.50
2022-11-04T17:06:17.893Z,9.50
2022-11-04T17:08:44.815Z,9.50
2022-11-04T17:11:12.488Z,9.40
2022-11-04T17:13:40.041Z,9.50
2022-11-04T17:16:10.629Z,9.60
2022-11-04T17:18:38.047Z,9.60
2022-11-04T17:21:12.495Z,9.50
2022-11-04T17:23:40.093Z,9.50
2022-11-04T17:26:07.377Z,9.50
2022-11-04T17:28:34.659Z,9.50
2022-11-04T17:31:03.267Z,9.40
2022-11-04T17:33:30.400Z,9.40
2022-11-04T17:35:59.385Z,9.40
2022-11-04T17:38:28.786Z,9.40
2022-11-04T17:40:56.415Z,9.30
2022-11-04T17:43:23.703Z,9.40
2022-11-04T17:45:51.069Z,9.40
2022-11-04T17:48:17.929Z,9.40
2022-11-04T17:50:45.198Z,9.40
2022-11-04T17:53:13.494Z,9.40
2022-11-04T17:55:40.982Z,9.40
2022-11-04T17:58:08.304Z,9.30
2022-11-04T18:00:35.422Z,9.30
2022-11-04T18:03:02.267Z,9.50
2022-11-04T18:05:29.266Z,9.40
2022-11-04T18:07:56.117Z,9.40
2022-11-04T18:10:23.395Z,9.40
2022-11-04T18:12:50.369Z,9.40
2022-11-04T18:15:17.715Z,9.40
2022-11-04T18:17:45.439Z,9.40
2022-11-04T18:20:14.512Z,9.40
2022-11-04T18:22:43.703Z,9.40
2022-11-04T18:25:11.919Z,9.40
2022-11-04T18:27:39.052Z,9.40
2022-11-04T18:30:07.550Z,9.40
2022-11-04T18:32:34.985Z,9.40
2022-11-04T18:35:04.909Z,9.40
2022-11-04T18:37:32.299Z,9.50
2022-11-04T18:40:00.505Z,9.60
2022-11-04T18:42:28.019Z,9.50
2022-11-04T18:44:55.291Z,9.50
2022-11-04T18:47:24.023Z,9.50
2022-11-04T18:49:51.482Z,9.60
2022-11-04T18:52:19.081Z,9.60
2022-11-04T18:54:46.407Z,9.60
2022-11-04T18:57:14.924Z,9.60
2022-11-04T18:59:42.286Z,9.60
2022-11-04T19:02:19.629Z,9.50
2022-11-04T19:04:47.523Z,9.60
2022-11-04T19:07:14.414Z,9.60
2022-11-04T19:09:47.022Z,9.60
2022-11-04T19:12:17.048Z,9.60
2022-11-04T19:14:45.297Z,9.60
2022-11-04T19:17:12.680Z,9.60
2022-11-04T19:19:40.092Z,9.60
2022-11-04T19:22:07.664Z,9.60
2022-11-04T19:24:36.232Z,9.60
2022-11-04T19:27:03.730Z,9.60
2022-11-04T19:29:31.638Z,9.60
2022-11-04T19:31:59.773Z,9.70
2022-11-04T19:34:28.236Z,9.60
2022-11-04T19:36:56.170Z,9.60
2022-11-04T19:39:23.780Z,9.70
2022-11-04T19:41:51.189Z,9.70
2022-11-04T19:44:21.028Z,9.80
2022-11-04T19:46:48.290Z,9.70
2022-11-04T19:49:15.904Z,9.70
2022-11-04T19:51:43.374Z,9.70
2022-11-04T19:54:11.191Z,9.70
2022-11-04T19:56:38.454Z,9.70
2022-11-04T19:59:07.998Z,9.60
2022-11-04T20:01:38.665Z,9.70
2022-11-04T20:04:07.993Z,9.70
2022-11-04T20:06:36.414Z,9.70
2022-11-04T20:09:08.894Z,9.70
2022-11-04T20:11:40.927Z,9.70
2022-11-04T20:14:08.399Z,9.60
2022-11-04T20:16:35.934Z,9.60
2022-11-04T20:19:07.182Z,9.60
2022-11-04T20:21:36.893Z,9.70
2022-11-04T20:24:07.289Z,9.60
2022-11-04T20:26:37.035Z,9.70
2022-11-04T20:29:05.449Z,9.70
2022-11-04T20:31:34.995Z,9.60
2022-11-04T20:34:04.079Z,9.60
2022-11-04T20:36:31.714Z,9.70
2022-11-04T20:39:02.021Z,9.70
2022-11-04T20:41:29.433Z,9.60
2022-11-04T20:43:56.480Z,9.60
2022-11-04T20:46:31.891Z,9.70
2022-11-04T20:49:02.124Z,9.60
2022-11-04T20:51:32.184Z,9.70
2022-11-04T20:54:01.441Z,9.70
2022-11-04T20:56:31.657Z,9.60
2022-11-04T20:59:00.147Z,9.60
2022-11-04T21:01:36.327Z,9.70
2022-11-04T21:04:09.718Z,9.70
2022-11-04T21:06:37.833Z,9.70
2022-11-04T21:09:07.495Z,9.80
2022-11-04T21:11:34.596Z,9.80
2022-11-04T21:14:02.664Z,9.70
2022-11-04T21:16:30.020Z,9.80
2022-11-04T21:18:56.837Z,9.80
2022-11-04T21:21:23.704Z,9.80
2022-11-04T21:23:55.562Z,9.70
2022-11-04T21:26:25.524Z,9.70
2022-11-04T21:29:05.425Z,9.70
2022-11-04T21:31:34.219Z,9.70
2022-11-04T21:34:01.519Z,9.70
2022-11-04T21:36:28.715Z,9.70
2022-11-04T21:38:56.490Z,9.70
2022-11-04T21:41:27.923Z,9.70
2022-11-04T21:43:59.149Z,9.70
2022-11-04T21:46:26.355Z,9.70
2022-11-04T21:48:53.477Z,9.80
2022-11-04T21:51:23.383Z,9.80
2022-11-04T21:53:50.252Z,9.80
2022-11-04T21:56:19.419Z,9.80
2022-11-04T21:58:46.703Z,9.80
2022-11-04T22:01:16.581Z,9.90
2022-11-04T22:03:49.260Z,9.80
2022-11-04T22:06:16.224Z,9.90
2022-11-04T22:08:44.983Z,9.80
2022-11-04T22:11:13.197Z,9.80
2022-11-04T22:13:40.771Z,9.80
2022-11-04T22:16:19.841Z,9.80
2022-11-04T22:18:47.328Z,9.80
2022-11-04T22:21:16.389Z,9.80
2022-11-04T22:23:44.216Z,9.80
2022-11-04T22:26:17.580Z,9.70
2022-11-04T22:28:44.711Z,9.80
2022-11-04T22:31:19.825Z,9.80
2022-11-04T22:33:46.752Z,9.80
2022-11-04T22:36:14.126Z,9.80
2022-11-04T22:38:42.268Z,9.80
2022-11-04T22:41:11.721Z,9.90
2022-11-04T22:43:38.659Z,9.80
2022-11-04T22:46:17.671Z,9.80
2022-11-04T22:48:44.569Z,9.90
2022-11-04T22:51:12.267Z,9.90
2022-11-04T22:53:39.498Z,9.80
2022-11-04T22:56:08.584Z,9.80
2022-11-04T22:58:35.377Z,9.80
2022-11-04T23:01:10.738Z,9.80
2022-11-04T23:03:38.480Z,9.80
2022-11-04T23:06:06.805Z,9.80
2022-11-04T23:08:35.584Z,9.80
2022-11-04T23:11:08.997Z,9.80
2022-11-04T23:13:35.829Z,9.80
2022-11-04T23:16:02.807Z,9.80
2022-11-04T23:18:30.132Z,9.90
2022-11-04T23:20:57.038Z,9.80
2022-11-04T23:23:23.896Z,9.80
2022-11-04T23:25:50.769Z,9.90
2022-11-04T23:28:17.636Z,9.80
2022-11-04T23:30:46.686Z,9.80
2022-11-04T23:33:14.743Z,9.80
2022-11-04T23:35:47.928Z,9.80
2022-11-04T23:38:14.687Z,9.70
2022-11-04T23:40:42.357Z,9.70
2022-11-04T23:43:09.692Z,9.70
2022-11-04T23:45:36.690Z,9.80
2022-11-04T23:48:03.660Z,9.80
2022-11-04T23:50:32.902Z,9.70
2022-11-04T23:53:00.131Z,9.80
2022-11-04T23:55:26.898Z,9.80
2022-11-04T23:57:53.669Z,9.80
